createdAt,value
2019-03-01T00:01:30.202Z,25.52
2019-03-01T00:04:16.202Z,26.55
2019-03-01T00:07:12.427Z,27.37
2019-03-01T00:09:52.391Z,25.15
2019-03-01T00:13:06.490Z,26.33
2019-03-01T00:15:52.054Z,28.05
2019-03-01T00:18:59.458Z,24.47
2019-03-01T00:21:58.188Z,24.72
2019-03-01T00:24:48.419Z,27.60
2019-03-01T00:27:43.696Z,23.15
2019-03-01T00:30:49.495Z,28.30
2019-03-01T00:33:41.285Z,22.05
2019-03-01T00:36:47.367Z,23.45
2019-03-01T00:40:02.654Z,22.10
2019-03-01T00:42:44.755Z,21.90
2019-03-01T00:45:12.936Z,22.50
2019-03-01T00:47:41.264Z,20.62
2019-03-01T00:50:09.849Z,20.12
2019-03-01T00:52:38.070Z,19.50
2019-03-01T00:55:06.464Z,20.00
2019-03-01T00:57:34.810Z,19.67
2019-03-01T01:00:04.264Z,18.40
2019-03-01T01:02:32.476Z,18.27
2019-03-01T01:05:00.613Z,20.00
2019-03-01T01:07:28.960Z,15.80
2019-03-01T01:09:57.218Z,16.62
2019-03-01T01:12:25.499Z,14.85
2019-03-01T01:14:53.872Z,19.62
2019-03-01T01:17:22.210Z,19.90
2019-03-01T01:19:50.391Z,14.47
2019-03-01T01:22:18.515Z,17.10
2019-03-01T01:24:46.838Z,18.23
2019-03-01T01:27:15.228Z,16.00
2019-03-01T01:29:43.316Z,16.07
2019-03-01T01:32:11.534Z,17.17
2019-03-01T01:34:39.614Z,14.55
2019-03-01T01:37:07.627Z,15.20
2019-03-01T01:39:35.690Z,16.50
2019-03-01T01:42:04.523Z,12.20
2019-03-01T01:44:32.664Z,14.55
2019-03-01T01:47:00.878Z,15.35
2019-03-01T01:49:30.057Z,15.48
2019-03-01T01:51:58.215Z,18.12
2019-03-01T01:54:26.527Z,19.48
2019-03-01T01:56:54.767Z,17.52
2019-03-01T01:59:22.842Z,20.32
2019-03-01T02:01:51.210Z,20.08
2019-03-01T02:04:19.494Z,18.55
2019-03-01T02:06:47.699Z,21.48
2019-03-01T02:09:24.380Z,20.20
2019-03-01T02:11:53.135Z,19.73
2019-03-01T02:14:21.336Z,19.57
2019-03-01T02:16:49.549Z,18.77
2019-03-01T02:19:17.802Z,21.87
2019-03-01T02:21:46.026Z,19.87
2019-03-01T02:24:14.646Z,25.37
2019-03-01T02:26:42.864Z,17.10
2019-03-01T02:29:11.155Z,17.35
2019-03-01T02:31:46.672Z,17.73
2019-03-01T02:34:13.905Z,19.75
2019-03-01T02:36:41.108Z,18.50
2019-03-01T02:39:08.512Z,23.55
2019-03-01T02:41:35.672Z,24.27
2019-03-01T02:44:02.879Z,22.87
2019-03-01T02:46:31.336Z,23.52
2019-03-01T02:49:12.756Z,22.75
2019-03-01T02:51:39.724Z,20.77
2019-03-01T02:54:06.962Z,20.85
2019-03-01T02:56:34.135Z,24.05
2019-03-01T02:59:01.122Z,18.52
2019-03-01T03:01:28.697Z,20.40
2019-03-01T03:03:56.103Z,21.35
2019-03-01T03:06:34.867Z,19.95
2019-03-01T03:09:02.868Z,21.90
2019-03-01T03:11:30.086Z,20.62
2019-03-01T03:13:58.159Z,19.95
2019-03-01T03:16:26.500Z,21.57
2019-03-01T03:18:54.782Z,20.60
2019-03-01T03:21:23.054Z,22.52
2019-03-01T03:23:51.418Z,23.52
2019-03-01T03:26:19.701Z,21.93
2019-03-01T03:28:47.918Z,18.65
2019-03-01T03:31:16.361Z,25.50
2019-03-01T03:33:43.925Z,22.10
2019-03-01T03:36:12.422Z,20.95
2019-03-01T03:38:39.486Z,22.25
2019-03-01T03:41:07.932Z,23.40
2019-03-01T03:43:36.556Z,26.10
2019-03-01T03:46:03.848Z,25.55
2019-03-01T03:48:32.216Z,26.55
2019-03-01T03:51:00.403Z,25.62
2019-03-01T03:53:28.847Z,27.45
2019-03-01T03:55:57.075Z,21.80
2019-03-01T03:58:25.548Z,24.18
2019-03-01T04:00:54.000Z,28.32
2019-03-01T04:03:21.296Z,25.00
2019-03-01T04:05:49.583Z,26.77
2019-03-01T04:08:17.771Z,27.30
2019-03-01T04:10:46.036Z,27.10
2019-03-01T04:13:16.529Z,25.45
2019-03-01T04:15:44.209Z,29.92
2019-03-01T04:18:12.646Z,27.32
2019-03-01T04:20:40.935Z,31.12
2019-03-01T04:23:09.149Z,30.12
2019-03-01T04:25:37.367Z,26.70
2019-03-01T04:28:05.705Z,28.07
2019-03-01T04:30:34.200Z,26.82
2019-03-01T04:33:01.483Z,24.70
2019-03-01T04:35:29.741Z,28.45
2019-03-01T04:37:57.936Z,24.87
2019-03-01T04:40:26.011Z,25.12
2019-03-01T04:42:54.420Z,25.70
2019-03-01T04:45:21.626Z,24.47
2019-03-01T04:47:49.882Z,27.60
2019-03-01T04:50:18.119Z,26.37
2019-03-01T04:52:46.495Z,22.60
2019-03-01T04:55:17.320Z,22.58
2019-03-01T04:57:45.491Z,23.98
2019-03-01T05:00:18.487Z,26.25
2019-03-01T05:02:45.866Z,28.17
2019-03-01T05:05:14.017Z,24.55
2019-03-01T05:07:42.363Z,22.67
2019-03-01T05:10:10.492Z,27.75
2019-03-01T05:12:39.031Z,29.90
2019-03-01T05:15:09.230Z,28.83
2019-03-01T05:17:36.434Z,25.05
2019-03-01T05:20:04.705Z,28.62
2019-03-01T05:22:33.174Z,27.17
2019-03-01T05:25:02.020Z,26.55
2019-03-01T05:27:29.302Z,28.52
2019-03-01T05:29:58.052Z,32.40
2019-03-01T05:32:26.755Z,31.85
2019-03-01T05:34:55.879Z,38.13
2019-03-01T05:37:23.166Z,40.25
2019-03-01T05:39:52.239Z,33.58
2019-03-01T05:42:20.867Z,36.15
2019-03-01T05:44:49.701Z,36.83
2019-03-01T05:47:18.444Z,33.05
2019-03-01T05:49:47.347Z,34.25
2019-03-01T05:52:15.865Z,38.05
2019-03-01T05:54:44.067Z,33.28
2019-03-01T05:57:12.884Z,33.25
2019-03-01T05:59:41.765Z,42.17
2019-03-01T06:02:54.716Z,36.03
2019-03-01T06:05:29.038Z,34.27
2019-03-01T06:08:31.219Z,31.35
2019-03-01T06:11:11.154Z,36.10
2019-03-01T06:14:06.868Z,37.33
2019-03-01T06:16:59.843Z,35.13
2019-03-01T06:19:58.994Z,33.55
2019-03-01T06:22:55.575Z,39.05
2019-03-01T06:25:57.858Z,39.70
2019-03-01T06:29:06.151Z,38.80
2019-03-01T06:32:15.093Z,44.15
2019-03-01T06:35:11.463Z,36.68
2019-03-01T06:38:08.545Z,42.65
2019-03-01T06:41:22.570Z,43.40
2019-03-01T06:44:38.814Z,44.67
2019-03-01T06:47:40.675Z,45.75
2019-03-01T06:50:15.112Z,44.88
2019-03-01T06:52:43.340Z,40.85
2019-03-01T06:55:34.859Z,42.50
2019-03-01T06:58:03.492Z,49.60
2019-03-01T07:00:35.556Z,47.15
2019-03-01T07:03:04.113Z,45.63
2019-03-01T07:05:32.583Z,46.45
2019-03-01T07:08:00.907Z,41.53
2019-03-01T07:10:29.333Z,41.75
2019-03-01T07:12:57.429Z,43.28
2019-03-01T07:15:25.867Z,43.63
2019-03-01T07:17:57.624Z,55.83
2019-03-01T07:20:25.030Z,49.18
2019-03-01T07:22:53.474Z,54.35
2019-03-01T07:25:21.730Z,50.30
2019-03-01T07:27:50.419Z,49.00
2019-03-01T07:30:18.584Z,48.75
2019-03-01T07:32:45.751Z,49.58
2019-03-01T07:35:14.203Z,49.33
2019-03-01T07:37:42.658Z,55.90
2019-03-01T07:40:11.550Z,55.35
2019-03-01T07:42:40.338Z,54.80
2019-03-01T07:45:08.289Z,53.85
2019-03-01T07:47:36.809Z,55.17
2019-03-01T07:50:05.631Z,56.25
2019-03-01T07:52:34.018Z,56.45
2019-03-01T07:55:02.643Z,60.08
2019-03-01T07:57:31.615Z,61.48
2019-03-01T08:00:01.036Z,62.53
2019-03-01T08:02:29.458Z,68.12
2019-03-01T08:05:00.011Z,67.75
2019-03-01T08:07:28.515Z,64.00
2019-03-01T08:09:56.943Z,71.17
2019-03-01T08:12:25.011Z,71.60
2019-03-01T08:14:53.754Z,76.22
2019-03-01T08:17:21.131Z,74.95
2019-03-01T08:19:49.142Z,72.37
2019-03-01T08:22:20.874Z,77.62
2019-03-01T08:24:47.515Z,79.30
2019-03-01T08:27:15.853Z,82.27
2019-03-01T08:29:44.227Z,85.05
2019-03-01T08:32:12.597Z,73.62
2019-03-01T08:34:40.819Z,77.62
2019-03-01T08:37:08.927Z,77.30
2019-03-01T08:39:39.747Z,80.40
2019-03-01T08:42:07.510Z,80.83
2019-03-01T08:44:36.586Z,88.25
2019-03-01T08:47:05.357Z,90.15
2019-03-01T08:49:33.825Z,87.57
2019-03-01T08:52:02.412Z,89.50
2019-03-01T08:54:31.240Z,90.65
2019-03-01T08:57:00.614Z,98.15
2019-03-01T08:59:28.591Z,107.00
2019-03-01T09:01:56.912Z,105.45
2019-03-01T09:04:25.354Z,108.00
2019-03-01T09:06:53.862Z,106.90
2019-03-01T09:09:22.703Z,113.25
2019-03-01T09:11:51.401Z,110.08
2019-03-01T09:14:18.940Z,114.30
2019-03-01T09:16:47.537Z,115.03
2019-03-01T09:19:15.750Z,119.85
2019-03-01T09:21:49.935Z,119.20
2019-03-01T09:24:15.136Z,121.72
2019-03-01T09:26:43.926Z,116.62
2019-03-01T09:29:12.959Z,130.03
2019-03-01T09:31:42.375Z,143.68
2019-03-01T09:34:11.018Z,146.22
2019-03-01T09:36:45.442Z,154.38
2019-03-01T09:39:14.415Z,168.47
2019-03-01T09:41:42.278Z,154.53
2019-03-01T09:44:09.744Z,146.70
2019-03-01T09:46:38.327Z,154.00
2019-03-01T09:49:06.407Z,158.05
2019-03-01T09:51:35.303Z,160.28
2019-03-01T09:54:06.527Z,155.15
2019-03-01T09:56:33.795Z,143.15
2019-03-01T09:59:02.128Z,133.27
2019-03-01T10:01:30.394Z,120.77
2019-03-01T10:03:59.538Z,121.50
2019-03-01T10:06:37.624Z,115.57
2019-03-01T10:08:58.849Z,117.28
2019-03-01T10:11:28.259Z,114.57
2019-03-01T10:13:55.810Z,114.32
2019-03-01T10:16:23.155Z,102.22
2019-03-01T10:18:51.690Z,104.95
2019-03-01T10:21:20.462Z,117.30
2019-03-01T10:23:49.636Z,118.62
2019-03-01T10:26:18.531Z,109.25
2019-03-01T10:28:45.768Z,124.60
2019-03-01T10:31:14.792Z,119.85
2019-03-01T10:33:43.662Z,118.28
2019-03-01T10:36:12.423Z,123.18
2019-03-01T10:38:40.028Z,123.90
2019-03-01T10:41:08.502Z,119.25
2019-03-01T10:43:36.719Z,129.60
2019-03-01T10:46:05.306Z,120.62
2019-03-01T10:48:34.161Z,126.58
2019-03-01T10:51:01.933Z,133.03
2019-03-01T10:53:30.203Z,126.60
2019-03-01T10:55:58.420Z,131.37
2019-03-01T10:58:26.842Z,135.75
2019-03-01T11:00:55.463Z,133.65
2019-03-01T11:03:23.742Z,147.82
2019-03-01T11:05:52.976Z,140.70
2019-03-01T11:08:21.519Z,127.38
2019-03-01T11:10:50.073Z,111.55
2019-03-01T11:13:17.375Z,102.67
2019-03-01T11:15:46.212Z,98.25
2019-03-01T11:18:14.596Z,89.03
2019-03-01T11:20:43.156Z,89.85
2019-03-01T11:23:13.808Z,90.85
2019-03-01T11:25:43.013Z,85.38
2019-03-01T11:28:11.237Z,84.80
2019-03-01T11:30:40.484Z,92.82
2019-03-01T11:33:09.071Z,73.83
2019-03-01T11:35:37.648Z,88.30
2019-03-01T11:38:06.062Z,67.20
2019-03-01T11:40:35.039Z,69.53
2019-03-01T11:43:04.114Z,72.50
2019-03-01T11:45:33.239Z,68.05
2019-03-01T11:48:00.836Z,76.55
2019-03-01T11:50:29.186Z,82.42
2019-03-01T11:52:57.406Z,75.25
2019-03-01T11:55:25.954Z,79.82
2019-03-01T11:57:54.389Z,75.15
2019-03-01T12:00:22.841Z,74.40
2019-03-01T12:02:51.442Z,76.33
2019-03-01T12:05:20.282Z,76.85
2019-03-01T12:07:49.241Z,81.02
2019-03-01T12:10:21.181Z,76.90
2019-03-01T12:12:49.748Z,76.75
2019-03-01T12:15:18.462Z,87.67
2019-03-01T12:17:47.058Z,82.57
2019-03-01T12:20:16.048Z,84.22
2019-03-01T12:22:44.513Z,76.17
2019-03-01T12:25:13.111Z,85.15
2019-03-01T12:27:41.658Z,88.95
2019-03-01T12:30:13.389Z,83.65
2019-03-01T12:32:40.810Z,84.42
2019-03-01T12:35:09.393Z,86.95
2019-03-01T12:37:36.715Z,61.28
2019-03-01T12:40:06.451Z,45.65
2019-03-01T12:42:34.623Z,45.83
2019-03-01T12:45:02.969Z,44.55
2019-03-01T12:47:31.188Z,37.98
2019-03-01T12:50:00.090Z,47.55
2019-03-01T12:52:28.647Z,39.23
2019-03-01T12:54:57.361Z,38.40
2019-03-01T12:57:24.589Z,33.25
2019-03-01T12:59:52.987Z,37.45
2019-03-01T13:02:21.179Z,35.88
2019-03-01T13:04:49.892Z,28.50
2019-03-01T13:07:19.763Z,30.02
2019-03-01T13:09:47.839Z,32.20
2019-03-01T13:12:16.286Z,33.85
2019-03-01T13:14:43.565Z,25.40
2019-03-01T13:17:11.728Z,33.58
2019-03-01T13:19:39.911Z,28.95
2019-03-01T13:22:08.118Z,29.65
2019-03-01T13:24:36.335Z,38.00
2019-03-01T13:27:04.612Z,39.40
2019-03-01T13:29:32.953Z,37.78
2019-03-01T13:32:00.006Z,37.05
2019-03-01T13:34:28.172Z,38.48
2019-03-01T13:36:56.462Z,40.12
2019-03-01T13:39:24.878Z,40.25
2019-03-01T13:41:53.069Z,35.50
2019-03-01T13:44:21.282Z,35.70
2019-03-01T13:46:49.566Z,36.60
2019-03-01T13:49:17.795Z,35.73
2019-03-01T13:51:49.496Z,30.92
2019-03-01T13:54:15.787Z,27.22
2019-03-01T13:56:43.390Z,30.92
2019-03-01T13:59:11.466Z,31.07
2019-03-01T14:01:40.106Z,23.25
2019-03-01T14:04:09.521Z,34.10
2019-03-01T14:06:38.113Z,34.75
2019-03-01T14:09:11.683Z,26.77
2019-03-01T14:11:40.152Z,29.92
2019-03-01T14:14:09.164Z,31.52
2019-03-01T14:16:36.713Z,31.30
2019-03-01T14:19:05.197Z,30.43
2019-03-01T14:21:33.925Z,29.32
2019-03-01T14:24:02.472Z,29.95
2019-03-01T14:26:31.144Z,28.02
2019-03-01T14:28:59.638Z,30.32
2019-03-01T14:31:28.147Z,28.35
2019-03-01T14:33:57.107Z,34.55
2019-03-01T14:36:25.531Z,24.52
2019-03-01T14:38:54.176Z,35.85
2019-03-01T14:41:22.742Z,29.05
2019-03-01T14:43:50.419Z,27.98
2019-03-01T14:46:20.720Z,31.50
2019-03-01T14:48:48.902Z,30.80
2019-03-01T14:51:18.006Z,31.80
2019-03-01T14:53:45.873Z,24.70
2019-03-01T14:56:21.381Z,33.53
2019-03-01T14:58:58.874Z,30.15
2019-03-01T15:02:14.714Z,30.23
2019-03-01T15:04:42.901Z,28.50
2019-03-01T15:07:11.368Z,26.77
2019-03-01T15:09:39.942Z,30.20
2019-03-01T15:12:08.529Z,25.70
2019-03-01T15:14:37.110Z,29.85
2019-03-01T15:17:05.798Z,29.45
2019-03-01T15:19:33.977Z,34.88
2019-03-01T15:22:03.860Z,26.68
2019-03-01T15:24:33.273Z,29.60
2019-03-01T15:27:04.252Z,32.10
2019-03-01T15:29:32.181Z,33.25
2019-03-01T15:32:00.123Z,30.88
2019-03-01T15:34:27.279Z,28.25
2019-03-01T15:36:56.810Z,33.65
2019-03-01T15:39:25.744Z,26.77
2019-03-01T15:41:54.210Z,23.57
2019-03-01T15:44:25.757Z,28.38
2019-03-01T15:46:53.226Z,32.73
2019-03-01T15:49:23.737Z,29.95
2019-03-01T15:51:52.360Z,32.78
2019-03-01T15:54:20.193Z,30.20
2019-03-01T15:56:48.742Z,30.55
2019-03-01T15:59:16.926Z,35.00
2019-03-01T16:01:47.312Z,26.40
2019-03-01T16:04:15.623Z,36.55
2019-03-01T16:06:44.448Z,35.85
2019-03-01T16:09:16.096Z,35.35
2019-03-01T16:11:43.925Z,35.70
2019-03-01T16:14:12.774Z,30.48
2019-03-01T16:16:41.114Z,27.90
2019-03-01T16:19:13.842Z,30.72
2019-03-01T16:21:43.118Z,29.63
2019-03-01T16:24:11.615Z,30.45
2019-03-01T16:26:40.477Z,26.87
2019-03-01T16:29:08.093Z,28.57
2019-03-01T16:31:36.847Z,31.15
2019-03-01T16:34:05.338Z,27.35
2019-03-01T16:36:37.995Z,34.50
2019-03-01T16:39:10.854Z,27.95
2019-03-01T16:41:42.806Z,29.25
2019-03-01T16:44:11.210Z,27.87
2019-03-01T16:46:38.961Z,24.47
2019-03-01T16:49:06.842Z,26.93
2019-03-01T16:51:35.386Z,25.65
2019-03-01T16:54:02.882Z,26.02
2019-03-01T16:56:34.543Z,29.42
2019-03-01T16:59:03.736Z,33.60
2019-03-01T17:01:30.813Z,22.05
2019-03-01T17:03:59.158Z,22.05
2019-03-01T17:06:27.366Z,20.05
2019-03-01T17:08:55.673Z,22.62
2019-03-01T17:11:24.020Z,19.73
2019-03-01T17:13:52.842Z,18.80
2019-03-01T17:16:23.813Z,20.27
2019-03-01T17:18:52.478Z,16.32
2019-03-01T17:21:20.791Z,16.32
2019-03-01T17:23:48.965Z,19.77
2019-03-01T17:26:17.635Z,19.62
2019-03-01T17:28:45.885Z,12.95
2019-03-01T17:31:14.542Z,18.05
2019-03-01T17:33:45.235Z,13.70
2019-03-01T17:36:12.892Z,15.15
2019-03-01T17:38:45.884Z,13.55
2019-03-01T17:41:11.808Z,14.43
2019-03-01T17:43:40.896Z,14.15
2019-03-01T17:46:08.118Z,15.03
2019-03-01T17:48:36.233Z,18.02
2019-03-01T17:51:05.130Z,18.15
2019-03-01T17:53:34.523Z,16.07
2019-03-01T17:56:02.269Z,14.55
2019-03-01T17:58:30.593Z,17.87
2019-03-01T18:01:02.762Z,15.08
2019-03-01T18:03:30.429Z,11.95
2019-03-01T18:05:59.070Z,15.93
2019-03-01T18:08:27.064Z,14.45
2019-03-01T18:10:55.601Z,11.60
2019-03-01T18:13:24.263Z,13.13
2019-03-01T18:15:52.593Z,9.48
2019-03-01T18:18:24.782Z,9.45
2019-03-01T18:20:53.625Z,13.60
2019-03-01T18:23:22.430Z,11.00
2019-03-01T18:25:51.123Z,10.75
2019-03-01T18:28:19.106Z,12.23
2019-03-01T18:30:47.326Z,16.27
2019-03-01T18:33:16.882Z,9.45
2019-03-01T18:35:48.836Z,9.90
2019-03-01T18:38:16.501Z,10.90
2019-03-01T18:40:43.909Z,11.83
2019-03-01T18:43:13.812Z,12.10
2019-03-01T18:45:43.138Z,8.30
2019-03-01T18:48:16.129Z,12.20
2019-03-01T18:50:46.837Z,12.68
2019-03-01T18:53:14.256Z,13.18
2019-03-01T18:55:41.864Z,9.85
2019-03-01T18:58:10.569Z,9.35
2019-03-01T19:00:39.734Z,16.62
2019-03-01T19:03:07.235Z,12.78
2019-03-01T19:05:36.767Z,12.45
2019-03-01T19:08:06.107Z,14.03
2019-03-01T19:10:35.098Z,18.75
2019-03-01T19:13:03.895Z,11.20
2019-03-01T19:15:33.171Z,14.33
2019-03-01T19:18:01.732Z,10.55
2019-03-01T19:20:30.730Z,11.88
2019-03-01T19:22:58.734Z,10.25
2019-03-01T19:25:27.227Z,8.00
2019-03-01T19:27:55.707Z,11.35
2019-03-01T19:30:24.466Z,10.70
2019-03-01T19:32:52.966Z,8.13
2019-03-01T19:35:21.266Z,8.85
2019-03-01T19:37:50.803Z,7.15
2019-03-01T19:40:22.362Z,8.43
2019-03-01T19:42:49.613Z,11.48
2019-03-01T19:45:17.391Z,12.40
2019-03-01T19:47:44.695Z,10.50
2019-03-01T19:50:15.330Z,10.35
2019-03-01T19:52:47.052Z,11.85
2019-03-01T19:55:14.266Z,12.18
2019-03-01T19:57:42.637Z,13.08
2019-03-01T20:00:17.193Z,11.90
2019-03-01T20:02:46.431Z,18.07
2019-03-01T20:05:15.485Z,11.95
2019-03-01T20:07:44.787Z,15.32
2019-03-01T20:10:15.900Z,18.10
2019-03-01T20:12:44.702Z,10.48
2019-03-01T20:15:20.429Z,12.37
2019-03-01T20:17:48.112Z,15.38
2019-03-01T20:20:16.763Z,15.85
2019-03-01T20:22:45.664Z,16.52
2019-03-01T20:25:16.199Z,15.85
2019-03-01T20:27:45.571Z,13.48
2019-03-01T20:30:17.921Z,14.55
2019-03-01T20:32:47.483Z,15.50
2019-03-01T20:35:16.700Z,15.93
2019-03-01T20:37:45.521Z,18.52
2019-03-01T20:40:14.372Z,23.02
2019-03-01T20:42:42.547Z,15.78
2019-03-01T20:45:13.904Z,15.58
2019-03-01T20:47:44.837Z,17.50
2019-03-01T20:50:15.682Z,17.37
2019-03-01T20:52:44.531Z,21.62
2019-03-01T20:55:13.479Z,19.37
2019-03-01T20:57:40.792Z,16.80
2019-03-01T21:00:11.863Z,17.60
2019-03-01T21:02:40.401Z,20.62
2019-03-01T21:05:09.740Z,15.93
2019-03-01T21:07:38.419Z,23.42
2019-03-01T21:10:16.035Z,22.10
2019-03-01T21:12:44.167Z,21.70
2019-03-01T21:15:11.874Z,20.23
2019-03-01T21:17:39.310Z,24.92
2019-03-01T21:20:08.559Z,24.72
2019-03-01T21:22:39.703Z,18.12
2019-03-01T21:25:08.567Z,22.32
2019-03-01T21:27:37.277Z,24.60
2019-03-01T21:30:10.669Z,22.32
2019-03-01T21:32:39.384Z,20.70
2019-03-01T21:35:10.443Z,21.75
2019-03-01T21:37:39.424Z,23.70
2019-03-01T21:40:08.743Z,22.50
2019-03-01T21:42:37.199Z,24.15
2019-03-01T21:45:07.234Z,27.17
2019-03-01T21:47:34.815Z,28.83
2019-03-01T21:50:04.278Z,28.30
2019-03-01T21:52:33.623Z,27.87
2019-03-01T21:55:02.446Z,26.62
2019-03-01T21:57:31.160Z,28.60
2019-03-01T22:00:00.723Z,28.45
2019-03-01T22:02:29.026Z,28.42
2019-03-01T22:04:57.450Z,31.52
2019-03-01T22:07:26.050Z,29.63
2019-03-01T22:09:56.735Z,29.45
2019-03-01T22:12:25.663Z,33.92
2019-03-01T22:14:54.748Z,29.77
2019-03-01T22:17:23.393Z,26.55
2019-03-01T22:19:52.230Z,24.95
2019-03-01T22:22:21.259Z,30.40
2019-03-01T22:24:50.365Z,27.73
2019-03-01T22:27:21.589Z,30.45
2019-03-01T22:29:49.595Z,28.05
2019-03-01T22:32:17.510Z,28.00
2019-03-01T22:34:46.199Z,29.42
2019-03-01T22:37:15.207Z,27.37
2019-03-01T22:39:43.389Z,25.52
2019-03-01T22:42:14.318Z,22.93
2019-03-01T22:44:43.791Z,24.32
2019-03-01T22:47:12.517Z,19.12
2019-03-01T22:49:41.282Z,19.87
2019-03-01T22:52:09.522Z,15.50
2019-03-01T22:54:37.795Z,16.77
2019-03-01T22:57:06.547Z,17.82
2019-03-01T22:59:35.518Z,17.23
2019-03-01T23:02:08.056Z,15.95
2019-03-01T23:04:36.251Z,16.75
2019-03-01T23:07:04.435Z,12.15
2019-03-01T23:09:33.742Z,12.15
2019-03-01T23:12:04.684Z,13.60
2019-03-01T23:14:32.647Z,12.03
2019-03-01T23:17:01.254Z,13.45
2019-03-01T23:19:29.776Z,14.38
2019-03-01T23:21:57.468Z,13.20
2019-03-01T23:24:26.390Z,13.93
2019-03-01T23:26:56.779Z,10.70
2019-03-01T23:29:25.598Z,10.23
2019-03-01T23:31:54.138Z,11.43
2019-03-01T23:34:23.058Z,14.23
2019-03-01T23:36:50.815Z,12.03
2019-03-01T23:39:21.622Z,12.13
2019-03-01T23:41:49.394Z,11.85
2019-03-01T23:44:17.679Z,10.93
2019-03-01T23:46:45.194Z,12.93
2019-03-01T23:49:13.529Z,9.15
2019-03-01T23:51:42.488Z,10.13
2019-03-01T23:54:11.987Z,11.90
2019-03-01T23:56:39.325Z,14.63
2019-03-01T23:59:07.499Z,10.80
